createdAt,value
2018-11-23T00:00:17.741Z,14.80
2018-11-23T00:01:17.731Z,15.40
2018-11-23T00:02:17.721Z,15.00
2018-11-23T00:03:17.704Z,15.00
2018-11-23T00:04:17.702Z,14.70
2018-11-23T00:05:17.705Z,15.20
2018-11-23T00:06:17.674Z,15.60
2018-11-23T00:07:17.661Z,15.30
2018-11-23T00:08:17.682Z,14.80
2018-11-23T00:09:17.638Z,14.40
2018-11-23T00:10:17.628Z,14.20
2018-11-23T00:11:17.634Z,14.80
2018-11-23T00:12:17.599Z,14.40
2018-11-23T00:13:17.592Z,15.40
2018-11-23T00:14:17.584Z,13.90
2018-11-23T00:15:17.574Z,15.20
2018-11-23T00:16:17.584Z,14.70
2018-11-23T00:17:17.570Z,14.70
2018-11-23T00:18:17.535Z,15.00
2018-11-23T00:19:17.532Z,15.70
2018-11-23T00:20:17.519Z,15.00
2018-11-23T00:21:17.512Z,15.20
2018-11-23T00:22:17.532Z,15.50
2018-11-23T00:23:17.503Z,16.10
2018-11-23T00:24:17.472Z,15.60
2018-11-23T00:25:17.463Z,16.30
2018-11-23T00:26:17.455Z,15.30
2018-11-23T00:27:17.441Z,15.20
2018-11-23T00:28:17.429Z,15.80
2018-11-23T00:29:17.457Z,15.50
2018-11-23T00:30:17.404Z,15.90
2018-11-23T00:31:17.390Z,14.70
2018-11-23T00:32:17.388Z,16.10
2018-11-23T00:33:17.375Z,14.70
2018-11-23T00:34:17.399Z,15.20
2018-11-23T00:35:17.350Z,15.40
2018-11-23T00:36:17.339Z,15.60
2018-11-23T00:37:17.356Z,16.60
2018-11-23T00:38:17.323Z,15.50
2018-11-23T00:39:17.311Z,15.70
2018-11-23T00:40:17.331Z,16.10
2018-11-23T00:41:17.295Z,15.40
2018-11-23T00:42:17.279Z,15.70
2018-11-23T00:43:17.271Z,15.00
2018-11-23T00:44:17.249Z,15.20
2018-11-23T00:45:17.239Z,16.00
2018-11-23T00:46:17.244Z,15.20
2018-11-23T00:47:17.221Z,16.10
2018-11-23T00:48:17.208Z,15.50
2018-11-23T00:49:17.208Z,15.00
2018-11-23T00:50:17.206Z,15.80
2018-11-23T00:51:17.191Z,14.60
2018-11-23T00:52:17.175Z,15.90
2018-11-23T00:53:17.150Z,15.40
2018-11-23T00:54:17.141Z,15.10
2018-11-23T00:55:17.131Z,15.40
2018-11-23T00:56:17.142Z,15.90
2018-11-23T00:57:17.124Z,14.90
2018-11-23T00:58:17.100Z,15.00
2018-11-23T00:59:17.090Z,14.80
2018-11-23T01:00:17.073Z,15.00
2018-11-23T01:01:17.069Z,15.50
2018-11-23T01:02:17.050Z,14.10
2018-11-23T01:03:17.054Z,15.40
2018-11-23T01:04:17.027Z,15.00
2018-11-23T01:05:17.056Z,14.90
2018-11-23T01:06:17.004Z,14.90
2018-11-23T01:07:17.003Z,14.90
2018-11-23T01:08:16.999Z,14.00
2018-11-23T01:09:16.979Z,14.70
2018-11-23T01:10:16.965Z,14.70
2018-11-23T01:11:16.975Z,15.20
2018-11-23T01:12:16.934Z,14.70
2018-11-23T01:13:16.929Z,15.70
2018-11-23T01:14:16.932Z,16.20
2018-11-23T01:15:16.907Z,15.20
2018-11-23T01:16:16.894Z,15.00
2018-11-23T01:17:16.884Z,15.90
2018-11-23T01:18:16.892Z,16.00
2018-11-23T01:19:16.855Z,15.60
2018-11-23T01:20:16.859Z,15.20
2018-11-23T01:21:16.836Z,14.90
2018-11-23T01:22:16.829Z,14.40
2018-11-23T01:23:16.833Z,15.20
2018-11-23T01:24:16.825Z,15.00
2018-11-23T01:25:16.792Z,14.40
2018-11-23T01:26:16.781Z,14.20
2018-11-23T01:27:16.787Z,15.60
2018-11-23T01:28:16.758Z,14.70
2018-11-23T01:29:16.768Z,15.60
2018-11-23T01:30:16.736Z,14.40
2018-11-23T01:31:16.728Z,15.70
2018-11-23T01:32:16.726Z,14.90
2018-11-23T01:33:16.708Z,14.90
2018-11-23T01:34:16.716Z,15.50
2018-11-23T01:35:16.683Z,15.00
2018-11-23T01:36:16.675Z,14.50
2018-11-23T01:37:16.669Z,15.00
2018-11-23T01:38:16.662Z,15.10
2018-11-23T01:39:16.638Z,14.30
2018-11-23T01:40:16.642Z,14.20
2018-11-23T01:41:16.615Z,15.10
2018-11-23T01:42:16.605Z,14.20
2018-11-23T01:43:16.594Z,14.80
2018-11-23T01:44:16.592Z,14.90
2018-11-23T01:45:16.571Z,15.10
2018-11-23T01:46:16.579Z,15.30
2018-11-23T01:47:16.583Z,15.20
2018-11-23T01:48:16.540Z,14.50
2018-11-23T01:49:16.525Z,15.00
2018-11-23T01:50:16.520Z,14.70
2018-11-23T01:51:16.503Z,14.70
2018-11-23T01:52:16.517Z,14.40
2018-11-23T01:53:16.485Z,15.00
2018-11-23T01:54:16.468Z,14.90
2018-11-23T01:55:16.461Z,14.60
2018-11-23T01:56:16.469Z,15.60
2018-11-23T01:57:16.437Z,15.20
2018-11-23T01:58:16.454Z,14.40
2018-11-23T01:59:16.417Z,14.20
2018-11-23T02:00:16.405Z,14.40
2018-11-23T02:01:16.395Z,14.20
2018-11-23T02:02:16.385Z,15.30
2018-11-23T02:03:16.371Z,14.60
2018-11-23T02:04:16.417Z,14.50
2018-11-23T02:05:16.395Z,14.50
2018-11-23T02:06:16.340Z,15.00
2018-11-23T02:07:16.326Z,14.60
2018-11-23T02:08:16.319Z,15.40
2018-11-23T02:09:16.308Z,14.90
2018-11-23T02:10:16.321Z,15.20
2018-11-23T02:11:16.291Z,15.20
2018-11-23T02:12:16.272Z,14.50
2018-11-23T02:13:16.270Z,15.10
2018-11-23T02:14:16.253Z,14.60
2018-11-23T02:15:16.248Z,15.10
2018-11-23T02:16:16.248Z,14.90
2018-11-23T02:17:16.224Z,14.60
2018-11-23T02:18:16.206Z,14.90
2018-11-23T02:19:16.211Z,14.90
2018-11-23T02:20:16.201Z,15.10
2018-11-23T02:21:16.181Z,14.80
2018-11-23T02:22:16.183Z,15.00
2018-11-23T02:23:16.172Z,14.10
2018-11-23T02:24:16.155Z,15.20
2018-11-23T02:25:16.133Z,15.60
2018-11-23T02:26:16.151Z,15.30
2018-11-23T02:27:16.113Z,14.50
2018-11-23T02:28:16.111Z,14.70
2018-11-23T02:29:16.080Z,14.80
2018-11-23T02:30:16.075Z,14.60
2018-11-23T02:31:16.069Z,14.90
2018-11-23T02:32:16.063Z,14.40
2018-11-23T02:33:16.055Z,15.00
2018-11-23T02:34:16.080Z,15.20
2018-11-23T02:35:16.023Z,15.70
2018-11-23T02:36:16.010Z,14.50
2018-11-23T02:37:15.993Z,15.00
2018-11-23T02:38:15.985Z,15.70
2018-11-23T02:39:15.996Z,15.50
2018-11-23T02:40:15.962Z,14.70
2018-11-23T02:41:15.954Z,14.30
2018-11-23T02:42:15.938Z,14.10
2018-11-23T02:43:15.970Z,14.60
2018-11-23T02:44:15.920Z,14.30
2018-11-23T02:45:15.917Z,15.20
2018-11-23T02:46:15.895Z,14.50
2018-11-23T02:47:15.886Z,14.70
2018-11-23T02:48:15.875Z,15.30
2018-11-23T02:49:15.860Z,14.30
2018-11-23T02:50:15.881Z,14.10
2018-11-23T02:51:15.873Z,14.60
2018-11-23T02:52:15.841Z,14.10
2018-11-23T02:53:15.816Z,14.40
2018-11-23T02:54:15.855Z,15.30
2018-11-23T02:55:15.796Z,14.50
2018-11-23T02:56:15.796Z,14.00
2018-11-23T02:57:15.849Z,14.70
2018-11-23T02:58:15.767Z,14.90
2018-11-23T02:59:15.767Z,15.10
2018-11-23T03:00:15.741Z,14.80
2018-11-23T03:01:15.731Z,15.70
2018-11-23T03:02:15.722Z,14.40
2018-11-23T03:03:15.722Z,14.40
2018-11-23T03:04:15.746Z,15.10
2018-11-23T03:05:15.692Z,15.00
2018-11-23T03:06:15.672Z,14.20
2018-11-23T03:07:15.662Z,15.30
2018-11-23T03:08:15.668Z,14.80
2018-11-23T03:09:15.640Z,14.10
2018-11-23T03:10:15.628Z,15.10
2018-11-23T03:11:15.644Z,14.30
2018-11-23T03:12:15.616Z,14.90
2018-11-23T03:13:15.598Z,14.20
2018-11-23T03:14:15.611Z,15.80
2018-11-23T03:15:15.576Z,15.30
2018-11-23T03:16:15.563Z,14.60
2018-11-23T03:17:15.559Z,14.50
2018-11-23T03:18:15.560Z,15.40
2018-11-23T03:19:15.539Z,15.00
2018-11-23T03:20:15.533Z,14.80
2018-11-23T03:21:15.507Z,14.80
2018-11-23T03:22:15.553Z,15.70
2018-11-23T03:23:15.485Z,14.90
2018-11-23T03:24:15.472Z,16.20
2018-11-23T03:25:15.480Z,15.00
2018-11-23T03:26:15.455Z,14.90
2018-11-23T03:27:15.443Z,15.00
2018-11-23T03:28:15.467Z,14.80
2018-11-23T03:29:15.424Z,15.70
2018-11-23T03:30:15.424Z,14.40
2018-11-23T03:31:15.421Z,14.40
2018-11-23T03:32:15.391Z,14.40
2018-11-23T03:33:15.377Z,15.30
2018-11-23T03:34:15.408Z,15.00
2018-11-23T03:35:15.356Z,15.80
2018-11-23T03:36:15.342Z,15.00
2018-11-23T03:37:15.362Z,14.90
2018-11-23T03:38:15.321Z,14.70
2018-11-23T03:39:15.331Z,14.10
2018-11-23T03:40:15.303Z,15.00
2018-11-23T03:41:15.318Z,14.80
2018-11-23T03:42:15.277Z,15.20
2018-11-23T03:43:15.296Z,15.70
2018-11-23T03:44:15.254Z,15.50
2018-11-23T03:45:15.241Z,14.80
2018-11-23T03:46:15.244Z,14.80
2018-11-23T03:47:15.223Z,14.00
2018-11-23T03:48:15.210Z,14.50
2018-11-23T03:49:15.248Z,14.70
2018-11-23T03:50:15.188Z,14.90
2018-11-23T03:51:15.179Z,15.00
2018-11-23T03:52:15.168Z,14.50
2018-11-23T03:53:15.188Z,14.50
2018-11-23T03:54:15.146Z,15.10
2018-11-23T03:55:15.145Z,14.80
2018-11-23T03:56:15.121Z,14.00
2018-11-23T03:57:15.113Z,14.60
2018-11-23T03:58:15.140Z,14.70
2018-11-23T03:59:15.086Z,15.50
2018-11-23T04:00:17.242Z,15.40
2018-11-23T04:01:15.087Z,15.30
2018-11-23T04:02:15.066Z,14.80
2018-11-23T04:03:15.044Z,14.90
2018-11-23T04:04:15.033Z,14.50
2018-11-23T04:05:15.022Z,15.10
2018-11-23T04:06:15.057Z,14.90
2018-11-23T04:07:15.002Z,14.70
2018-11-23T04:08:14.989Z,14.50
2018-11-23T04:09:14.975Z,15.30
2018-11-23T04:10:14.965Z,14.40
2018-11-23T04:11:14.971Z,15.00
2018-11-23T04:12:14.949Z,14.10
2018-11-23T04:13:14.932Z,14.10
2018-11-23T04:14:14.966Z,14.60
2018-11-23T04:15:14.916Z,15.10
2018-11-23T04:16:14.921Z,15.00
2018-11-23T04:17:14.915Z,14.80
2018-11-23T04:18:14.881Z,15.10
2018-11-23T04:19:14.868Z,14.40
2018-11-23T04:20:14.862Z,15.70
2018-11-23T04:21:14.844Z,15.20
2018-11-23T04:22:14.844Z,14.40
2018-11-23T04:23:14.838Z,15.20
2018-11-23T04:24:14.815Z,15.00
2018-11-23T04:25:14.799Z,13.90
2018-11-23T04:26:14.789Z,15.40
2018-11-23T04:27:14.782Z,15.30
2018-11-23T04:28:14.784Z,15.60
2018-11-23T04:29:14.796Z,15.70
2018-11-23T04:30:14.749Z,15.40
2018-11-23T04:31:14.738Z,15.00
2018-11-23T04:32:14.723Z,16.70
2018-11-23T04:33:14.713Z,15.80
2018-11-23T04:34:14.717Z,15.10
2018-11-23T04:35:14.694Z,14.80
2018-11-23T04:36:14.735Z,14.40
2018-11-23T04:37:14.681Z,14.60
2018-11-23T04:38:14.653Z,13.80
2018-11-23T04:39:14.645Z,14.50
2018-11-23T04:40:14.649Z,14.60
2018-11-23T04:41:14.619Z,14.20
2018-11-23T04:42:14.632Z,14.50
2018-11-23T04:43:14.600Z,14.50
2018-11-23T04:44:14.591Z,14.50
2018-11-23T04:45:14.581Z,15.30
2018-11-23T04:46:14.590Z,15.40
2018-11-23T04:47:14.555Z,15.50
2018-11-23T04:48:14.544Z,14.70
2018-11-23T04:49:14.533Z,15.10
2018-11-23T04:50:14.527Z,14.10
2018-11-23T04:51:14.546Z,14.50
2018-11-23T04:52:14.523Z,14.80
2018-11-23T04:53:14.496Z,14.20
2018-11-23T04:54:14.477Z,14.40
2018-11-23T04:55:14.485Z,14.40
2018-11-23T04:56:14.462Z,16.00
2018-11-23T04:57:14.457Z,14.70
2018-11-23T04:58:14.443Z,14.70
2018-11-23T04:59:14.420Z,14.60
2018-11-23T05:00:14.411Z,15.20
2018-11-23T05:01:14.402Z,14.80
2018-11-23T05:02:14.390Z,15.10
2018-11-23T05:03:14.420Z,14.80
2018-11-23T05:04:14.366Z,15.00
2018-11-23T05:05:14.357Z,15.00
2018-11-23T05:06:14.350Z,15.20
2018-11-23T05:07:14.376Z,14.90
2018-11-23T05:08:14.320Z,14.30
2018-11-23T05:09:14.344Z,15.70
2018-11-23T05:10:14.342Z,15.80
2018-11-23T05:11:14.310Z,14.40
2018-11-23T05:12:14.278Z,14.50
2018-11-23T05:13:14.269Z,14.60
2018-11-23T05:14:14.261Z,15.30
2018-11-23T05:15:14.247Z,14.80
2018-11-23T05:16:14.234Z,15.00
2018-11-23T05:17:14.237Z,14.90
2018-11-23T05:18:14.260Z,14.30
2018-11-23T05:19:14.201Z,14.50
2018-11-23T05:20:14.191Z,14.40
2018-11-23T05:21:14.179Z,14.50
2018-11-23T05:22:14.165Z,15.60
2018-11-23T05:23:14.172Z,14.40
2018-11-23T05:24:14.148Z,15.30
2018-11-23T05:25:14.136Z,14.50
2018-11-23T05:26:14.162Z,14.50
2018-11-23T05:27:14.119Z,15.20
2018-11-23T05:28:14.124Z,15.10
2018-11-23T05:29:14.086Z,14.30
2018-11-23T05:30:14.080Z,15.30
2018-11-23T05:31:14.067Z,15.30
2018-11-23T05:32:14.088Z,15.00
2018-11-23T05:33:14.045Z,14.60
2018-11-23T05:34:14.064Z,15.90
2018-11-23T05:35:14.047Z,14.70
2018-11-23T05:36:14.012Z,14.40
2018-11-23T05:37:14.003Z,14.70
2018-11-23T05:38:13.994Z,14.60
2018-11-23T05:39:14.033Z,14.90
2018-11-23T05:40:13.965Z,14.90
2018-11-23T05:41:13.972Z,15.80
2018-11-23T05:42:13.945Z,15.40
2018-11-23T05:43:13.937Z,14.70
2018-11-23T05:44:13.955Z,14.40
2018-11-23T05:45:13.949Z,14.80
2018-11-23T05:46:13.900Z,14.60
2018-11-23T05:47:13.886Z,15.60
2018-11-23T05:48:13.879Z,14.90
2018-11-23T05:49:13.862Z,15.30
2018-11-23T05:50:13.853Z,14.40
2018-11-23T05:51:13.900Z,15.50
2018-11-23T05:52:13.838Z,16.00
2018-11-23T05:53:13.821Z,16.10
2018-11-23T05:54:13.813Z,15.40
2018-11-23T05:55:13.797Z,15.80
2018-11-23T05:56:13.787Z,15.50
2018-11-23T05:57:13.838Z,15.60
2018-11-23T05:58:13.762Z,16.20
2018-11-23T05:59:13.767Z,16.70
2018-11-23T06:00:13.746Z,15.30
2018-11-23T06:01:13.734Z,16.20
2018-11-23T06:02:13.722Z,15.30
2018-11-23T06:03:13.722Z,15.60
2018-11-23T06:04:13.712Z,15.00
2018-11-23T06:05:13.708Z,15.70
2018-11-23T06:06:13.678Z,16.10
2018-11-23T06:07:13.666Z,15.50
2018-11-23T06:08:13.654Z,14.90
2018-11-23T06:09:13.659Z,15.60
2018-11-23T06:10:13.631Z,15.80
2018-11-23T06:11:13.627Z,16.00
2018-11-23T06:12:13.648Z,16.60
2018-11-23T06:13:13.597Z,15.50
2018-11-23T06:14:13.601Z,15.30
2018-11-23T06:15:13.581Z,15.20
2018-11-23T06:16:13.566Z,16.00
2018-11-23T06:17:13.555Z,16.50
2018-11-23T06:18:13.545Z,16.60
2018-11-23T06:19:13.531Z,15.80
2018-11-23T06:20:13.554Z,16.60
2018-11-23T06:21:13.512Z,17.10
2018-11-23T06:22:13.501Z,16.90
2018-11-23T06:23:13.488Z,15.50
2018-11-23T06:24:13.519Z,15.70
2018-11-23T06:25:13.468Z,15.70
2018-11-23T06:26:13.469Z,15.70
2018-11-23T06:27:13.449Z,15.90
2018-11-23T06:28:13.466Z,15.60
2018-11-23T06:29:13.423Z,15.60
2018-11-23T06:30:13.413Z,15.20
2018-11-23T06:31:13.398Z,15.20
2018-11-23T06:32:13.405Z,16.40
2018-11-23T06:33:13.378Z,16.90
2018-11-23T06:34:13.366Z,15.50
2018-11-23T06:35:13.354Z,15.70
2018-11-23T06:36:13.384Z,16.80
2018-11-23T06:37:13.338Z,16.90
2018-11-23T06:38:13.343Z,15.80
2018-11-23T06:39:13.316Z,16.80
2018-11-23T06:40:13.300Z,16.60
2018-11-23T06:41:13.287Z,16.60
2018-11-23T06:42:13.274Z,16.20
2018-11-23T06:43:13.321Z,15.10
2018-11-23T06:44:13.272Z,15.60
2018-11-23T06:45:13.245Z,16.20
2018-11-23T06:46:13.232Z,15.90
2018-11-23T06:47:13.221Z,16.00
2018-11-23T06:48:13.208Z,15.30
2018-11-23T06:49:13.266Z,16.10
2018-11-23T06:50:13.187Z,17.00
2018-11-23T06:51:13.179Z,15.90
2018-11-23T06:52:13.174Z,16.30
2018-11-23T06:53:13.158Z,17.10
2018-11-23T06:54:14.506Z,16.70
2018-11-23T06:55:13.151Z,17.40
2018-11-23T06:56:13.136Z,16.30
2018-11-23T06:57:13.110Z,16.70
2018-11-23T06:58:13.097Z,15.90
2018-11-23T06:59:13.093Z,17.30
2018-11-23T07:00:13.093Z,17.00
2018-11-23T07:01:13.082Z,16.70
2018-11-23T07:02:13.054Z,16.60
2018-11-23T07:03:13.064Z,16.60
2018-11-23T07:04:13.032Z,17.10
2018-11-23T07:05:13.024Z,15.80
2018-11-23T07:06:13.026Z,16.70
2018-11-23T07:07:13.008Z,16.80
2018-11-23T07:08:12.990Z,17.80
2018-11-23T07:09:13.003Z,17.10
2018-11-23T07:10:12.967Z,17.80
2018-11-23T07:11:12.960Z,17.40
2018-11-23T07:12:12.965Z,17.80
2018-11-23T07:13:12.932Z,17.80
2018-11-23T07:14:12.921Z,17.20
2018-11-23T07:15:12.916Z,17.30
2018-11-23T07:16:12.901Z,16.50
2018-11-23T07:17:12.923Z,17.70
2018-11-23T07:18:12.887Z,19.30
2018-11-23T07:19:12.877Z,19.50
2018-11-23T07:20:12.854Z,19.10
2018-11-23T07:21:12.843Z,19.30
2018-11-23T07:22:12.835Z,18.80
2018-11-23T07:23:12.853Z,18.40
2018-11-23T07:24:12.813Z,17.70
2018-11-23T07:25:12.797Z,18.20
2018-11-23T07:26:12.802Z,19.10
2018-11-23T07:27:12.804Z,17.70
2018-11-23T07:28:15.678Z,18.00
2018-11-23T07:29:12.771Z,17.80
2018-11-23T07:30:12.747Z,18.50
2018-11-23T07:31:12.756Z,19.50
2018-11-23T07:32:12.725Z,17.10
2018-11-23T07:33:12.707Z,18.10
2018-11-23T07:34:12.707Z,18.20
2018-11-23T07:35:12.700Z,17.80
2018-11-23T07:36:12.712Z,18.20
2018-11-23T07:37:12.670Z,18.20
2018-11-23T07:38:12.651Z,18.40
2018-11-23T07:39:12.641Z,17.20
2018-11-23T07:40:12.643Z,17.20
2018-11-23T07:41:12.630Z,18.60
2018-11-23T07:42:12.632Z,17.30
2018-11-23T07:43:12.597Z,17.10
2018-11-23T07:44:12.588Z,18.00
2018-11-23T07:45:12.576Z,17.90
2018-11-23T07:46:12.583Z,16.90
2018-11-23T07:47:12.554Z,18.60
2018-11-23T07:48:12.543Z,18.20
2018-11-23T07:49:12.570Z,19.10
2018-11-23T07:50:12.523Z,18.60
2018-11-23T07:51:12.517Z,18.00
2018-11-23T07:52:12.513Z,18.60
2018-11-23T07:53:12.485Z,18.30
2018-11-23T07:54:12.471Z,18.90
2018-11-23T07:55:12.511Z,19.40
2018-11-23T07:56:12.457Z,18.30
2018-11-23T07:57:12.459Z,19.90
2018-11-23T07:58:12.457Z,18.60
2018-11-23T07:59:12.426Z,18.90
2018-11-23T08:00:12.408Z,18.10
2018-11-23T08:01:12.399Z,19.50
2018-11-23T08:02:12.420Z,18.70
2018-11-23T08:03:12.371Z,19.20
2018-11-23T08:04:12.383Z,19.60
2018-11-23T08:05:12.352Z,20.80
2018-11-23T08:06:12.345Z,20.30
2018-11-23T08:07:12.333Z,19.90
2018-11-23T08:08:12.318Z,20.50
2018-11-23T08:09:12.308Z,19.10
2018-11-23T08:10:12.338Z,19.40
2018-11-23T08:11:12.286Z,19.30
2018-11-23T08:12:12.277Z,19.30
2018-11-23T08:13:12.265Z,19.60
2018-11-23T08:14:12.252Z,19.80
2018-11-23T08:15:12.243Z,20.10
2018-11-23T08:16:12.243Z,19.60
2018-11-23T08:17:12.251Z,19.50
2018-11-23T08:18:12.208Z,19.80
2018-11-23T08:19:12.197Z,18.70
2018-11-23T08:20:12.190Z,19.70
2018-11-23T08:21:12.191Z,19.90
2018-11-23T08:22:12.168Z,19.70
2018-11-23T08:23:12.156Z,18.20
2018-11-23T08:24:12.170Z,18.70
2018-11-23T08:25:12.129Z,18.50
2018-11-23T08:26:12.129Z,18.40
2018-11-23T08:27:12.119Z,18.00
2018-11-23T08:28:12.097Z,18.10
2018-11-23T08:29:12.088Z,17.60
2018-11-23T08:30:12.097Z,18.40
2018-11-23T08:31:12.066Z,17.70
2018-11-23T08:32:12.069Z,17.70
2018-11-23T08:33:12.054Z,17.10
2018-11-23T08:34:12.032Z,16.50
2018-11-23T08:35:12.021Z,18.00
2018-11-23T08:36:12.045Z,16.50
2018-11-23T08:37:11.993Z,17.30
2018-11-23T08:38:12.048Z,18.30
2018-11-23T08:39:11.973Z,17.50
2018-11-23T08:40:11.963Z,17.10
2018-11-23T08:41:11.953Z,17.70
2018-11-23T08:42:11.940Z,18.10
2018-11-23T08:43:11.929Z,17.70
2018-11-23T08:44:11.927Z,17.80
2018-11-23T08:45:11.932Z,17.60
2018-11-23T08:46:11.897Z,16.90
2018-11-23T08:47:11.883Z,18.10
2018-11-23T08:48:11.887Z,18.10
2018-11-23T08:49:11.862Z,18.80
2018-11-23T08:50:11.870Z,18.50
2018-11-23T08:51:11.841Z,18.60
2018-11-23T08:52:11.839Z,17.60
2018-11-23T08:53:11.843Z,18.20
2018-11-23T08:54:11.842Z,18.80
2018-11-23T08:55:11.795Z,19.20
2018-11-23T08:56:11.817Z,19.20
2018-11-23T08:57:11.776Z,19.50
2018-11-23T08:58:11.759Z,18.40
2018-11-23T08:59:11.765Z,18.80
2018-11-23T09:00:11.747Z,19.10
2018-11-23T09:01:11.731Z,17.80
2018-11-23T09:02:11.731Z,18.70
2018-11-23T09:03:11.721Z,19.20
2018-11-23T09:04:11.757Z,19.70
2018-11-23T09:05:11.684Z,18.10
2018-11-23T09:06:11.677Z,18.20
2018-11-23T09:07:11.661Z,18.80
2018-11-23T09:08:11.674Z,18.40
2018-11-23T09:09:11.644Z,18.60
2018-11-23T09:10:11.629Z,19.40
2018-11-23T09:11:11.631Z,19.60
2018-11-23T09:12:11.609Z,18.90
2018-11-23T09:13:11.595Z,19.10
2018-11-23T09:14:11.606Z,19.90
2018-11-23T09:15:11.578Z,19.00
2018-11-23T09:16:11.562Z,19.30
2018-11-23T09:17:11.551Z,18.20
2018-11-23T09:18:11.542Z,18.20
2018-11-23T09:19:11.532Z,20.90
2018-11-23T09:20:11.561Z,19.60
2018-11-23T09:21:11.509Z,20.50
2018-11-23T09:22:11.497Z,19.70
2018-11-23T09:23:11.485Z,19.00
2018-11-23T09:24:11.473Z,19.20
2018-11-23T09:25:11.472Z,19.90
2018-11-23T09:26:11.482Z,19.80
2018-11-23T09:27:11.444Z,19.20
2018-11-23T09:28:11.429Z,18.80
2018-11-23T09:29:11.430Z,19.30
2018-11-23T09:30:11.419Z,19.50
2018-11-23T09:31:11.396Z,20.60
2018-11-23T09:32:11.492Z,20.10
2018-11-23T09:33:11.381Z,20.30
2018-11-23T09:34:11.361Z,20.60
2018-11-23T09:35:11.352Z,20.80
2018-11-23T09:36:11.339Z,21.20
2018-11-23T09:37:11.335Z,19.80
2018-11-23T09:38:11.331Z,20.40
2018-11-23T09:39:11.358Z,20.00
2018-11-23T09:40:11.295Z,19.50
2018-11-23T09:41:11.296Z,19.50
2018-11-23T09:42:11.276Z,19.10
2018-11-23T09:43:20.120Z,19.70
2018-11-23T09:44:18.805Z,20.50
2018-11-23T09:45:11.240Z,20.40
2018-11-23T09:46:20.182Z,19.00
2018-11-23T09:47:18.781Z,19.50
2018-11-23T09:48:18.770Z,20.00
2018-11-23T09:49:11.220Z,20.10
2018-11-23T09:50:18.735Z,20.70
2018-11-23T09:51:18.751Z,20.10
2018-11-23T09:52:18.750Z,19.70
2018-11-23T09:53:18.702Z,20.90
2018-11-23T09:54:11.139Z,21.20
2018-11-23T09:55:19.934Z,19.10
2018-11-23T09:56:11.115Z,20.60
2018-11-23T09:57:18.656Z,20.70
2018-11-23T09:58:11.101Z,19.70
2018-11-23T09:59:11.083Z,18.80
2018-11-23T10:00:20.005Z,19.90
2018-11-23T10:01:18.611Z,20.30
2018-11-23T10:02:11.075Z,20.20
2018-11-23T10:03:11.057Z,18.40
2018-11-23T10:04:11.033Z,19.50
2018-11-23T10:05:18.583Z,19.40
2018-11-23T10:06:19.621Z,19.50
2018-11-23T10:07:18.546Z,19.90
2018-11-23T10:08:18.535Z,19.60
2018-11-23T10:09:18.530Z,19.00
2018-11-23T10:10:18.515Z,18.70
2018-11-23T10:11:20.786Z,20.00
2018-11-23T10:12:18.492Z,19.90
2018-11-23T10:13:18.479Z,19.30
2018-11-23T10:14:10.914Z,19.50
2018-11-23T10:15:18.458Z,20.60
2018-11-23T10:16:18.449Z,20.40
2018-11-23T10:17:19.455Z,19.50
2018-11-23T10:18:18.424Z,18.90
2018-11-23T10:19:10.862Z,20.00
2018-11-23T10:20:18.402Z,19.60
2018-11-23T10:21:18.385Z,19.30
2018-11-23T10:22:18.379Z,18.90
2018-11-23T10:23:19.618Z,19.70
2018-11-23T10:24:18.349Z,21.00
2018-11-23T10:25:18.342Z,19.10
2018-11-23T10:26:18.329Z,19.70
2018-11-23T10:27:18.337Z,19.40
2018-11-23T10:28:18.305Z,19.00
2018-11-23T10:29:19.342Z,19.70
2018-11-23T10:30:19.373Z,19.50
2018-11-23T10:31:10.731Z,19.70
2018-11-23T10:32:18.273Z,20.00
2018-11-23T10:33:18.260Z,19.90
2018-11-23T10:34:19.486Z,20.70
2018-11-23T10:35:18.252Z,20.50
2018-11-23T10:36:19.561Z,19.80
2018-11-23T10:37:10.669Z,19.90
2018-11-23T10:38:18.209Z,18.50
2018-11-23T10:39:18.187Z,18.40
2018-11-23T10:40:19.670Z,17.90
2018-11-23T10:41:10.620Z,19.40
2018-11-23T10:42:19.209Z,18.50
2018-11-23T10:43:18.147Z,18.70
2018-11-23T10:44:10.583Z,18.50
2018-11-23T10:45:18.135Z,18.30
2018-11-23T10:46:19.317Z,18.80
2018-11-23T10:47:10.552Z,18.00
2018-11-23T10:48:10.542Z,18.60
2018-11-23T10:49:10.531Z,18.80
2018-11-23T10:50:10.530Z,18.70
2018-11-23T10:51:10.511Z,18.80
2018-11-23T10:52:10.508Z,18.60
2018-11-23T10:53:10.517Z,17.90
2018-11-23T10:54:10.475Z,19.10
2018-11-23T10:55:19.352Z,18.70
2018-11-23T10:56:10.453Z,18.50
2018-11-23T10:57:10.439Z,19.10
2018-11-23T10:58:10.459Z,18.00
2018-11-23T10:59:10.416Z,19.10
2018-11-23T11:00:10.407Z,18.60
2018-11-23T11:01:10.416Z,18.40
2018-11-23T11:02:10.408Z,18.90
2018-11-23T11:03:10.482Z,19.00
2018-11-23T11:04:10.364Z,19.50
2018-11-23T11:05:10.377Z,20.20
2018-11-23T11:06:10.386Z,19.10
2018-11-23T11:07:10.334Z,18.90
2018-11-23T11:08:10.333Z,18.70
2018-11-23T11:09:10.315Z,19.00
2018-11-23T11:10:10.307Z,17.10
2018-11-23T11:11:13.518Z,19.10
2018-11-23T11:12:10.285Z,18.40
2018-11-23T11:13:10.281Z,18.80
2018-11-23T11:14:10.254Z,19.30
2018-11-23T11:15:10.238Z,19.30
2018-11-23T11:16:10.229Z,19.20
2018-11-23T11:17:10.220Z,19.10
2018-11-23T11:18:10.221Z,18.90
2018-11-23T11:19:10.214Z,17.90
2018-11-23T11:20:10.191Z,18.80
2018-11-23T11:21:10.173Z,18.40
2018-11-23T11:22:10.166Z,19.80
2018-11-23T11:23:10.151Z,19.80
2018-11-23T11:24:10.155Z,18.30
2018-11-23T11:25:10.150Z,18.20
2018-11-23T11:26:10.117Z,19.00
2018-11-23T11:27:10.105Z,18.80
2018-11-23T11:28:10.092Z,19.20
2018-11-23T11:29:10.088Z,18.60
2018-11-23T11:30:10.127Z,19.30
2018-11-23T11:31:10.067Z,18.80
2018-11-23T11:32:10.051Z,19.00
2018-11-23T11:33:10.046Z,20.10
2018-11-23T11:34:10.029Z,19.40
2018-11-23T11:35:10.018Z,20.00
2018-11-23T11:36:10.032Z,19.80
2018-11-23T11:37:10.011Z,20.30
2018-11-23T11:38:09.981Z,20.30
2018-11-23T11:39:09.973Z,20.30
2018-11-23T11:40:09.966Z,20.70
2018-11-23T11:41:09.952Z,20.60
2018-11-23T11:42:09.954Z,20.40
2018-11-23T11:43:09.933Z,20.50
2018-11-23T11:44:09.922Z,20.00
2018-11-23T11:45:09.906Z,20.00
2018-11-23T11:46:09.893Z,19.50
2018-11-23T11:47:09.889Z,20.10
2018-11-23T11:48:09.884Z,19.80
2018-11-23T11:49:09.882Z,19.30
2018-11-23T11:50:09.853Z,19.00
2018-11-23T11:51:09.841Z,20.00
2018-11-23T11:52:09.827Z,20.70
2018-11-23T11:53:09.829Z,19.90
2018-11-23T11:54:09.819Z,19.60
2018-11-23T11:55:09.812Z,20.30
2018-11-23T11:56:09.782Z,20.70
2018-11-23T11:57:09.776Z,20.60
2018-11-23T11:58:09.780Z,20.50
2018-11-23T11:59:09.749Z,20.20
2018-11-23T12:00:09.753Z,20.20
2018-11-23T12:01:09.732Z,20.20
2018-11-23T12:02:10.343Z,20.10
2018-11-23T12:03:09.707Z,19.60
2018-11-23T12:04:09.694Z,19.10
2018-11-23T12:05:09.684Z,20.10
2018-11-23T12:06:09.681Z,19.20
2018-11-23T12:07:09.659Z,19.40
2018-11-23T12:08:09.698Z,20.00
2018-11-23T12:09:09.641Z,19.30
2018-11-23T12:10:09.624Z,18.60
2018-11-23T12:11:09.628Z,19.70
2018-11-23T12:12:09.608Z,18.70
2018-11-23T12:13:09.607Z,19.40
2018-11-23T12:14:09.623Z,18.60
2018-11-23T12:15:09.568Z,19.30
2018-11-23T12:16:09.562Z,18.50
2018-11-23T12:17:09.566Z,19.40
2018-11-23T12:18:09.533Z,19.10
2018-11-23T12:19:09.530Z,18.80
2018-11-23T12:20:09.549Z,19.00
2018-11-23T12:21:09.503Z,19.20
2018-11-23T12:22:09.513Z,17.60
2018-11-23T12:23:09.496Z,18.00
2018-11-23T12:24:09.470Z,18.90
2018-11-23T12:25:09.462Z,17.90
2018-11-23T12:26:09.446Z,19.90
2018-11-23T12:27:09.434Z,19.50
2018-11-23T12:28:09.448Z,19.10
2018-11-23T12:29:09.445Z,19.00
2018-11-23T12:30:09.403Z,18.10
2018-11-23T12:31:09.386Z,18.90
2018-11-23T12:32:09.380Z,19.30
2018-11-23T12:33:09.370Z,20.40
2018-11-23T12:34:09.392Z,19.50
2018-11-23T12:35:09.359Z,18.10
2018-11-23T12:36:09.347Z,19.00
2018-11-23T12:37:09.321Z,19.40
2018-11-23T12:38:09.315Z,20.70
2018-11-23T12:39:09.300Z,19.90
2018-11-23T12:40:09.303Z,18.90
2018-11-23T12:41:09.301Z,20.00
2018-11-23T12:42:09.264Z,19.80
2018-11-23T12:43:09.254Z,18.60
2018-11-23T12:44:09.243Z,19.50
2018-11-23T12:45:09.240Z,19.50
2018-11-23T12:46:09.224Z,20.00
2018-11-23T12:47:09.234Z,19.40
2018-11-23T12:48:09.219Z,20.20
2018-11-23T12:49:09.196Z,20.20
2018-11-23T12:50:09.178Z,19.30
2018-11-23T12:51:09.167Z,20.00
2018-11-23T12:52:09.157Z,18.90